Accueil
METAR-TAF:

METAR-TAF

Aéroports :

Aéroport international Mehrabad

Téhéran, Iran

latitude: 35-41N, longitude: 051-21E, altitude: 1204 m

Observation

Le bulletin a été fait il y a 33 minutes, à 08:00 UTC
Vent 4 kt de sud/sud-est
Température 32°C
Humidité 14%
Pression 1013 hPa
Visibilité 10 km ou plus
pas de nuages en-dessous de 1500 mètres et pas de cumulonimbus.

METAR: OIII 140800Z 16004KT CAVOK 32/01 Q1012 A2990 NOSIG

Heure: 13:03 (08:33 UTC)

Prévision

Le bulletin a été fait il y a 3 heures et 33 minutes, à 05:00 UTC
Prévision valable du 14 à 06 UTC au 15 à 12 UTC
Vent 8 kt de est/sud-est
Visibilité 10 km ou plus
pas de nuages en-dessous de 1500 mètres et pas de cumulonimbus.
Temporairement
du 14 à 09 UTC au 14 à 15 UTC
Vent 16 kt de est/sud-est

TAF: OIII 140500Z 1406/1512 12004MPS CAVOK TEMPO 1409/1415 12008MPS

Observations et prévisions météorologiques de plus de 4000 aéroports (messages METAR et TAF).

Les stations disponibles sont représentées par des disques jaunes et rouges sur la carte.

Passer la souris dessus pour voir le nom de la station.

Cliquer dessus pour voir les observations et prévisions météorologiques.

Pour changer de carte: cliquez sur les boutons verts avec une croix noire pour zoomer, sur le bouton vert avec un tiret pour effectuer un zoom arrière, ou sur les flèches vertes pour les cartes adjacentes.


METAR-TAF: